Time;durP1;ratioP1;P1;durP2;ratioP2;P2;SDS_P1;SDS_P2;PMS_P1;PMS_P2;Temp;Humidity;BMP_temperature;BMP_pressure;BME280_temperature;BME280_humidity;BME280_pressure;Samples;Min_cycle;Max_cycle;Signal;HPM_P1;HPM_P2
2023/05/07 00:01:35;;;;;;;10.40;9.40;;;9.50;99.90;;;;;;4977346;28;20466;-61
2023/05/07 00:04:03;;;;;;;11.33;10.27;;;9.60;99.90;;;;;;4976512;28;20468;-62
2023/05/07 00:06:33;;;;;;;11.63;10.53;;;9.50;99.90;;;;;;4974614;28;20488;-62
2023/05/07 00:09:01;;;;;;;11.33;10.23;;;9.50;99.90;;;;;;4979308;28;20473;-62
2023/05/07 00:11:31;;;;;;;11.87;10.77;;;9.50;99.90;;;;;;4983284;28;20493;-61
2023/05/07 00:13:59;;;;;;;12.73;11.40;;;9.50;99.90;;;;;;4986521;28;20998;-62
2023/05/07 00:16:27;;;;;;;11.67;10.57;;;9.40;99.90;;;;;;4978333;28;20580;-62
2023/05/07 00:18:55;;;;;;;12.13;10.97;;;9.40;99.90;;;;;;4980107;28;20480;-62
2023/05/07 00:21:26;;;;;;;13.27;11.87;;;9.40;99.90;;;;;;4980648;28;20593;-61
2023/05/07 00:23:54;;;;;;;12.40;11.30;;;9.40;99.90;;;;;;4975751;28;20509;-61
2023/05/07 00:26:22;;;;;;;11.67;10.40;;;9.40;99.90;;;;;;4979821;28;20493;-62
2023/05/07 00:28:51;;;;;;;11.67;10.57;;;9.40;99.90;;;;;;4977031;28;20466;-62
2023/05/07 00:31:19;;;;;;;12.30;11.00;;;9.40;99.90;;;;;;4973856;28;20548;-63
2023/05/07 00:33:47;;;;;;;11.60;10.50;;;9.40;99.90;;;;;;4978067;28;20567;-62
2023/05/07 00:36:15;;;;;;;12.03;10.93;;;9.30;99.90;;;;;;4978013;28;20477;-63
2023/05/07 00:38:43;;;;;;;12.70;11.40;;;9.40;99.90;;;;;;5002287;28;20453;-62
2023/05/07 00:41:11;;;;;;;11.33;10.03;;;9.40;99.90;;;;;;4997110;28;20466;-62
2023/05/07 00:43:39;;;;;;;11.63;10.53;;;9.40;99.90;;;;;;4980136;28;21041;-62
2023/05/07 00:46:09;;;;;;;11.03;10.03;;;9.50;99.90;;;;;;4977198;28;20500;-62
2023/05/07 00:48:37;;;;;;;12.30;11.10;;;9.50;99.90;;;;;;4978430;28;20465;-62
2023/05/07 00:51:05;;;;;;;11.60;10.50;;;9.50;99.90;;;;;;4980641;28;21034;-62
2023/05/07 00:53:33;;;;;;;10.80;9.70;;;9.50;99.90;;;;;;4980046;28;21006;-62
2023/05/07 00:56:02;;;;;;;12.27;10.93;;;9.40;99.90;;;;;;4975844;28;20492;-61
2023/05/07 00:58:36;;;;;;;12.33;11.10;;;9.40;99.90;;;;;;4978067;28;20967;-61
2023/05/07 01:01:04;;;;;;;12.50;11.40;;;9.40;99.90;;;;;;4976962;28;20480;-61
2023/05/07 01:03:33;;;;;;;12.10;11.00;;;9.40;99.90;;;;;;4975567;28;20465;-61
2023/05/07 01:06:03;;;;;;;11.07;9.97;;;9.40;99.90;;;;;;4979541;28;20555;-62
2023/05/07 01:08:34;;;;;;;13.53;11.47;;;9.40;99.90;;;;;;4978188;28;20477;-62
2023/05/07 01:11:03;;;;;;;11.90;10.67;;;9.40;99.90;;;;;;4979227;28;20576;-62
2023/05/07 01:13:32;;;;;;;11.60;10.40;;;9.40;99.90;;;;;;4980367;28;20971;-61
2023/05/07 01:16:00;;;;;;;12.40;11.17;;;9.40;99.90;;;;;;4977111;28;20573;-62
2023/05/07 01:18:29;;;;;;;11.87;10.67;;;9.40;99.90;;;;;;4980745;28;20548;-62
2023/05/07 01:20:59;;;;;;;11.63;10.50;;;9.40;99.90;;;;;;4979817;28;20493;-61
2023/05/07 01:23:30;;;;;;;11.77;10.67;;;9.30;99.90;;;;;;4979619;28;20495;-62
2023/05/07 01:25:58;;;;;;;11.80;10.70;;;9.40;99.90;;;;;;4980414;28;20493;-62
2023/05/07 01:28:26;;;;;;;11.73;9.47;;;9.40;99.90;;;;;;4979848;28;20489;-62
2023/05/07 01:30:57;;;;;;;11.57;10.47;;;9.40;99.90;;;;;;4982825;28;20500;-62
2023/05/07 01:33:27;;;;;;;10.80;9.80;;;9.40;99.90;;;;;;4981734;28;20915;-62
2023/05/07 01:35:55;;;;;;;10.77;9.77;;;9.40;99.90;;;;;;4981927;28;20493;-62
2023/05/07 01:38:24;;;;;;;11.80;10.67;;;9.40;99.90;;;;;;4982116;28;20893;-62
2023/05/07 01:40:54;;;;;;;10.80;9.70;;;9.40;99.90;;;;;;4975665;28;20481;-61
2023/05/07 01:43:22;;;;;;;10.30;9.30;;;9.40;99.90;;;;;;4972081;28;20469;-61
2023/05/07 01:45:50;;;;;;;11.17;10.07;;;9.50;99.90;;;;;;4974759;28;20867;-61
2023/05/07 01:48:19;;;;;;;10.33;9.33;;;9.50;99.90;;;;;;4976925;28;20474;-62
2023/05/07 01:50:48;;;;;;;10.37;9.43;;;9.50;99.90;;;;;;4970541;28;20698;-62
2023/05/07 01:53:16;;;;;;;10.60;9.60;;;9.40;99.90;;;;;;4974020;28;21153;-62
2023/05/07 01:55:45;;;;;;;11.23;10.13;;;9.40;99.90;;;;;;4972022;28;20813;-62
2023/05/07 01:58:14;;;;;;;10.33;9.30;;;9.40;99.90;;;;;;4969499;28;20469;-62
2023/05/07 02:00:43;;;;;;;11.70;10.60;;;9.40;99.90;;;;;;4973017;28;20730;-62
2023/05/07 02:03:11;;;;;;;11.13;10.03;;;9.40;99.90;;;;;;4969642;28;20589;-62
2023/05/07 02:05:39;;;;;;;9.93;9.03;;;9.40;99.90;;;;;;4970496;28;20567;-62
2023/05/07 02:08:07;;;;;;;11.10;10.00;;;9.40;99.90;;;;;;4979705;28;20477;-62
2023/05/07 02:10:35;;;;;;;10.37;9.27;;;9.40;99.90;;;;;;4977053;28;20481;-62
2023/05/07 02:13:03;;;;;;;10.60;9.60;;;9.40;99.90;;;;;;4983804;28;20493;-61
2023/05/07 02:15:33;;;;;;;10.20;9.20;;;9.40;99.90;;;;;;4981914;28;20508;-62
2023/05/07 02:18:02;;;;;;;10.90;9.80;;;9.40;99.90;;;;;;4973729;28;20477;-61
2023/05/07 02:20:31;;;;;;;10.57;9.57;;;9.40;99.90;;;;;;4979609;28;20477;-62
2023/05/07 02:22:59;;;;;;;10.40;8.93;;;9.40;99.90;;;;;;4975973;28;20529;-61
2023/05/07 02:25:27;;;;;;;10.03;9.10;;;9.40;99.90;;;;;;4976600;28;20600;-62
2023/05/07 02:27:55;;;;;;;10.23;9.23;;;9.40;99.90;;;;;;4975321;28;20485;-62
2023/05/07 02:30:23;;;;;;;9.17;8.27;;;9.40;99.90;;;;;;4975349;28;20473;-62
2023/05/07 02:32:53;;;;;;;10.17;9.17;;;9.40;99.90;;;;;;4978415;28;20489;-62
2023/05/07 02:35:21;;;;;;;10.67;9.57;;;9.40;99.90;;;;;;4973280;28;20516;-63
2023/05/07 02:37:49;;;;;;;9.23;8.33;;;9.40;99.90;;;;;;4979983;28;20485;-62
2023/05/07 02:40:17;;;;;;;10.30;9.30;;;9.40;99.90;;;;;;4973380;28;20472;-62
2023/05/07 02:42:44;;;;;;;9.93;9.03;;;9.40;99.90;;;;;;4978252;28;20469;-61
2023/05/07 02:45:12;;;;;;;9.60;8.70;;;9.40;99.90;;;;;;5000423;28;20477;-62
2023/05/07 02:47:40;;;;;;;9.80;8.80;;;9.30;99.90;;;;;;4990412;28;20990;-63
2023/05/07 02:50:10;;;;;;;9.47;8.47;;;9.30;99.90;;;;;;4978567;28;20469;-62
2023/05/07 02:52:39;;;;;;;9.40;8.57;;;9.30;99.90;;;;;;4976797;28;20489;-61
2023/05/07 02:55:08;;;;;;;9.80;8.77;;;9.40;99.90;;;;;;4978860;28;20565;-61
2023/05/07 02:57:36;;;;;;;9.50;8.60;;;9.30;99.90;;;;;;4970902;28;20900;-62
2023/05/07 03:00:12;;;;;;;10.70;9.70;;;9.30;99.90;;;;;;4976437;28;20562;-62
2023/05/07 03:02:40;;;;;;;10.80;9.80;;;9.30;99.90;;;;;;4975674;28;20473;-62
2023/05/07 03:05:10;;;;;;;10.20;9.30;;;9.30;99.90;;;;;;4973476;28;20481;-61
2023/05/07 03:07:39;;;;;;;11.83;9.47;;;9.30;99.90;;;;;;4976940;28;20488;-61
2023/05/07 03:10:07;;;;;;;11.30;10.20;;;9.30;99.90;;;;;;4977754;28;20497;-62
2023/05/07 03:12:36;;;;;;;9.80;8.90;;;9.30;99.90;;;;;;4971995;28;20522;-61
2023/05/07 03:15:04;;;;;;;11.57;10.47;;;9.30;99.90;;;;;;4973489;28;20743;-61
2023/05/07 03:17:32;;;;;;;10.63;9.63;;;9.30;99.90;;;;;;4980771;28;20516;-61
2023/05/07 03:20:00;;;;;;;11.03;9.90;;;9.30;99.90;;;;;;4978170;28;20473;-62
2023/05/07 03:22:29;;;;;;;11.70;10.60;;;9.30;99.90;;;;;;4983229;28;20468;-61
2023/05/07 03:24:57;;;;;;;10.37;9.47;;;9.30;99.90;;;;;;4981913;28;20472;-61
2023/05/07 03:27:25;;;;;;;11.63;10.53;;;9.30;99.90;;;;;;4981521;28;20523;-61
2023/05/07 03:29:53;;;;;;;10.83;9.73;;;9.30;99.90;;;;;;4979149;28;20849;-61
2023/05/07 03:32:21;;;;;;;11.77;10.57;;;9.30;99.90;;;;;;4982740;28;20493;-61
2023/05/07 03:34:49;;;;;;;11.77;10.57;;;9.30;99.90;;;;;;4983073;28;20519;-61
2023/05/07 03:37:17;;;;;;;11.00;10.00;;;9.30;99.90;;;;;;4981659;28;20490;-61
2023/05/07 03:39:47;;;;;;;12.37;10.90;;;9.30;99.90;;;;;;4984801;28;20473;-62
2023/05/07 03:42:16;;;;;;;11.53;10.43;;;9.30;99.90;;;;;;4981379;28;20473;-61
2023/05/07 03:44:44;;;;;;;10.93;9.83;;;9.30;99.90;;;;;;4984347;28;20496;-61
2023/05/07 03:47:14;;;;;;;11.60;9.67;;;9.30;99.90;;;;;;4981634;28;20485;-61
2023/05/07 03:49:42;;;;;;;11.40;10.40;;;9.30;99.90;;;;;;4984823;28;20475;-61
2023/05/07 03:52:10;;;;;;;11.03;9.90;;;9.30;99.90;;;;;;4980607;28;20489;-61
2023/05/07 03:54:38;;;;;;;10.27;9.27;;;9.30;99.90;;;;;;4978503;28;20515;-61
2023/05/07 03:57:07;;;;;;;12.03;10.90;;;9.30;99.90;;;;;;4971449;28;21029;-61
2023/05/07 03:59:35;;;;;;;10.30;9.20;;;9.30;99.90;;;;;;4975753;28;20464;-61
2023/05/07 04:02:03;;;;;;;10.00;9.10;;;9.30;99.90;;;;;;4977281;28;20482;-61
2023/05/07 04:04:32;;;;;;;10.00;9.10;;;9.30;99.90;;;;;;4976884;28;20752;-61
2023/05/07 04:07:01;;;;;;;10.90;9.80;;;9.30;99.90;;;;;;4980843;28;20495;-61
2023/05/07 04:09:29;;;;;;;11.10;10.00;;;9.20;99.90;;;;;;4978914;28;20952;-61
2023/05/07 04:11:57;;;;;;;11.67;10.57;;;9.20;99.90;;;;;;4976445;28;20474;-61
2023/05/07 04:14:26;;;;;;;10.53;9.53;;;9.30;99.90;;;;;;4984353;28;20465;-61
2023/05/07 04:16:54;;;;;;;11.03;9.93;;;9.30;99.90;;;;;;4977861;28;20499;-61
2023/05/07 04:19:22;;;;;;;11.10;10.10;;;9.30;99.90;;;;;;4977411;28;20591;-62
2023/05/07 04:21:50;;;;;;;10.73;9.63;;;9.30;99.90;;;;;;4980490;28;20481;-67
2023/05/07 04:24:18;;;;;;;9.53;8.70;;;9.30;99.90;;;;;;4981056;28;20464;-62
2023/05/07 04:26:47;;;;;;;11.00;10.00;;;9.40;99.90;;;;;;4977718;28;20501;-62
2023/05/07 04:29:14;;;;;;;10.93;9.27;;;9.30;99.90;;;;;;4982843;28;20544;-62
2023/05/07 04:31:44;;;;;;;10.70;9.60;;;9.40;99.90;;;;;;4978786;28;20480;-62
2023/05/07 04:34:12;;;;;;;10.27;9.27;;;9.40;99.90;;;;;;4979079;28;20528;-61
2023/05/07 04:36:40;;;;;;;10.60;9.50;;;9.40;99.90;;;;;;4979772;28;20489;-61
2023/05/07 04:39:09;;;;;;;10.57;9.57;;;9.40;99.90;;;;;;4976611;28;20495;-63
2023/05/07 04:41:38;;;;;;;9.80;8.80;;;9.30;99.90;;;;;;4978541;28;20472;-64
2023/05/07 04:44:06;;;;;;;9.77;8.87;;;9.40;99.90;;;;;;4970069;28;20480;-62
2023/05/07 04:46:34;;;;;;;8.77;8.07;;;9.40;99.90;;;;;;4974111;28;20492;-62
2023/05/07 04:49:04;;;;;;;8.47;7.70;;;9.40;99.90;;;;;;4987750;28;20540;-63
2023/05/07 04:51:32;;;;;;;9.43;8.50;;;9.40;99.90;;;;;;5004362;28;20480;-61
2023/05/07 04:54:00;;;;;;;10.37;9.37;;;9.40;99.90;;;;;;4987797;28;20486;-61
2023/05/07 04:56:29;;;;;;;10.30;9.30;;;9.40;99.90;;;;;;4977576;28;20489;-62
2023/05/07 04:58:57;;;;;;;9.23;8.37;;;9.40;99.90;;;;;;4974737;28;20473;-63
2023/05/07 05:01:25;;;;;;;10.33;9.40;;;9.40;99.90;;;;;;4973536;28;20483;-62
2023/05/07 05:03:53;;;;;;;10.10;9.20;;;9.50;99.90;;;;;;4976601;28;20469;-62
2023/05/07 05:06:22;;;;;;;9.67;8.67;;;9.50;99.90;;;;;;4981265;28;20504;-62
2023/05/07 05:08:50;;;;;;;10.53;9.43;;;9.50;99.90;;;;;;4978176;28;20839;-62
2023/05/07 05:11:19;;;;;;;10.70;9.40;;;9.50;99.90;;;;;;4977439;28;20469;-61
2023/05/07 05:13:48;;;;;;;11.00;9.90;;;9.50;99.90;;;;;;4983174;28;20492;-61
2023/05/07 05:16:16;;;;;;;10.50;9.40;;;9.50;99.90;;;;;;4977848;28;20489;-61
2023/05/07 05:18:45;;;;;;;10.27;9.27;;;9.50;99.90;;;;;;4976610;28;20493;-62
2023/05/07 05:21:12;;;;;;;9.60;8.63;;;9.50;99.90;;;;;;4979357;28;20479;-62
2023/05/07 05:23:42;;;;;;;9.27;8.37;;;9.50;99.90;;;;;;4978219;28;20473;-62
2023/05/07 05:26:10;;;;;;;9.60;8.60;;;9.50;99.90;;;;;;4979820;28;20502;-62
2023/05/07 05:28:38;;;;;;;10.00;9.03;;;9.50;99.90;;;;;;4977588;28;20473;-62
2023/05/07 05:31:06;;;;;;;10.30;9.30;;;9.60;99.90;;;;;;4982684;28;20475;-63
2023/05/07 05:33:34;;;;;;;9.77;8.83;;;9.60;99.90;;;;;;4980341;28;20496;-62
2023/05/07 05:36:02;;;;;;;10.03;9.03;;;9.60;99.90;;;;;;4984689;28;20489;-62
2023/05/07 05:38:30;;;;;;;9.87;8.97;;;9.60;99.90;;;;;;4982259;28;20488;-62
2023/05/07 05:41:00;;;;;;;10.40;9.30;;;9.60;99.90;;;;;;4978877;28;20708;-62
2023/05/07 05:43:27;;;;;;;9.03;8.23;;;9.60;99.90;;;;;;4980932;28;20468;-62
2023/05/07 05:45:56;;;;;;;10.37;9.37;;;9.60;99.90;;;;;;4976626;28;20485;-62
2023/05/07 05:48:25;;;;;;;10.77;9.70;;;9.60;99.90;;;;;;4980815;28;20469;-62
2023/05/07 05:50:52;;;;;;;10.83;9.73;;;9.70;99.90;;;;;;4980118;28;20474;-62
2023/05/07 05:53:20;;;;;;;9.83;8.80;;;9.70;99.90;;;;;;4981791;28;20496;-62
2023/05/07 05:55:49;;;;;;;9.90;9.10;;;9.70;99.90;;;;;;4999001;28;20497;-62
2023/05/07 05:58:18;;;;;;;9.93;8.93;;;9.70;99.90;;;;;;4982531;28;20664;-62
2023/05/07 06:00:48;;;;;;;9.23;8.33;;;9.70;99.90;;;;;;4978521;28;20979;-62
2023/05/07 06:03:18;;;;;;;9.77;8.87;;;9.70;99.90;;;;;;4970339;28;20509;-63
2023/05/07 06:05:46;;;;;;;9.33;8.40;;;9.70;99.90;;;;;;4973551;28;20524;-62
2023/05/07 06:08:14;;;;;;;9.97;9.07;;;9.70;99.90;;;;;;4974498;28;21666;-62
2023/05/07 06:10:42;;;;;;;9.97;8.97;;;9.70;99.90;;;;;;4979169;28;20477;-67
2023/05/07 06:13:10;;;;;;;9.30;8.43;;;9.70;99.90;;;;;;4975976;28;20469;-62
2023/05/07 06:15:39;;;;;;;9.67;8.87;;;9.80;99.90;;;;;;4972639;28;20496;-62
2023/05/07 06:18:07;;;;;;;10.67;9.77;;;9.80;99.90;;;;;;4975306;28;20473;-62
2023/05/07 06:20:35;;;;;;;10.30;9.30;;;9.80;99.90;;;;;;4977081;28;20541;-61
2023/05/07 06:23:03;;;;;;;9.77;8.87;;;9.80;99.90;;;;;;4975913;28;20477;-61
2023/05/07 06:25:31;;;;;;;9.60;8.70;;;9.80;99.90;;;;;;4976608;28;20490;-62
2023/05/07 06:27:59;;;;;;;10.93;9.60;;;9.80;99.90;;;;;;4970105;28;20470;-62
2023/05/07 06:30:27;;;;;;;10.77;9.80;;;9.80;99.90;;;;;;4974790;28;20791;-61
2023/05/07 06:32:56;;;;;;;9.90;8.90;;;9.80;99.90;;;;;;4972754;28;20963;-62
2023/05/07 06:35:24;;;;;;;9.30;8.50;;;9.80;99.90;;;;;;4974579;28;20512;-62
2023/05/07 06:37:52;;;;;;;9.33;8.53;;;9.80;99.90;;;;;;4992719;28;20479;-62
2023/05/07 06:40:20;;;;;;;9.37;8.47;;;9.80;99.90;;;;;;5002817;28;20469;-62
2023/05/07 06:42:48;;;;;;;9.63;8.77;;;9.80;99.90;;;;;;5002988;28;21178;-62
2023/05/07 06:45:16;;;;;;;9.30;8.50;;;9.90;99.90;;;;;;5003103;28;20462;-62
2023/05/07 06:47:45;;;;;;;9.53;8.73;;;9.90;99.90;;;;;;5004196;28;20465;-62
2023/05/07 06:50:16;;;;;;;8.97;8.17;;;9.90;99.90;;;;;;5003221;28;20457;-61
2023/05/07 06:52:44;;;;;;;9.00;8.20;;;9.90;99.90;;;;;;5002403;28;20479;-62
2023/05/07 06:55:12;;;;;;;10.20;7.90;;;9.90;99.90;;;;;;4995127;28;20498;-62
2023/05/07 06:57:40;;;;;;;8.50;7.70;;;10.00;99.90;;;;;;5005456;28;20463;-62
2023/05/07 07:00:09;;;;;;;9.50;8.60;;;10.00;99.90;;;;;;5003287;28;20438;-62
2023/05/07 07:02:38;;;;;;;9.10;8.30;;;10.00;99.90;;;;;;5000458;28;20963;-62
2023/05/07 07:05:07;;;;;;;10.10;9.20;;;10.00;99.90;;;;;;4995273;28;21298;-62
2023/05/07 07:07:36;;;;;;;9.07;8.27;;;10.00;99.90;;;;;;4998484;28;20481;-62
2023/05/07 07:10:05;;;;;;;9.37;8.40;;;10.10;99.90;;;;;;5003267;28;20449;-62
2023/05/07 07:12:33;;;;;;;9.10;7.90;;;10.10;99.90;;;;;;4997798;28;20481;-62
2023/05/07 07:15:02;;;;;;;9.00;8.10;;;10.10;99.90;;;;;;4984278;28;20489;-63
2023/05/07 07:17:30;;;;;;;9.40;7.40;;;10.20;99.90;;;;;;4989906;28;20485;-61
2023/05/07 07:19:58;;;;;;;9.40;7.70;;;10.20;99.90;;;;;;4997282;28;20477;-61
2023/05/07 07:22:26;;;;;;;8.30;7.50;;;10.20;99.90;;;;;;4990478;28;20473;-62
2023/05/07 07:24:55;;;;;;;8.80;8.00;;;10.30;99.90;;;;;;4988172;28;20931;-62
2023/05/07 07:27:23;;;;;;;8.50;7.80;;;10.30;99.90;;;;;;4984044;28;21027;-62
2023/05/07 07:29:51;;;;;;;8.23;7.43;;;10.40;99.90;;;;;;4976256;28;20477;-62
2023/05/07 07:32:19;;;;;;;8.03;7.33;;;10.40;99.90;;;;;;4971215;28;20481;-62
2023/05/07 07:34:47;;;;;;;8.80;7.87;;;10.40;99.90;;;;;;4972447;28;20567;-62
2023/05/07 07:37:15;;;;;;;8.90;8.00;;;10.50;99.90;;;;;;4973520;28;20499;-62
2023/05/07 07:39:43;;;;;;;8.53;7.80;;;10.50;99.90;;;;;;4966559;28;20477;-63
2023/05/07 07:42:12;;;;;;;7.80;7.20;;;10.50;99.90;;;;;;4972044;28;20567;-63
2023/05/07 07:44:40;;;;;;;8.53;7.80;;;10.50;99.90;;;;;;4964210;28;20487;-62
2023/05/07 07:47:08;;;;;;;7.90;7.30;;;10.50;99.90;;;;;;4966182;28;20880;-62
2023/05/07 07:49:37;;;;;;;8.00;7.30;;;10.50;99.90;;;;;;4973100;28;20501;-63
2023/05/07 07:52:05;;;;;;;8.00;7.30;;;10.60;99.90;;;;;;4970396;28;20962;-62
2023/05/07 07:54:33;;;;;;;8.23;7.43;;;10.60;99.90;;;;;;4977867;28;20928;-63
2023/05/07 07:57:01;;;;;;;7.90;7.13;;;10.60;99.90;;;;;;4973990;28;20589;-62
2023/05/07 07:59:30;;;;;;;7.30;6.57;;;10.70;99.90;;;;;;4974243;28;20469;-65
2023/05/07 08:02:01;;;;;;;8.20;7.50;;;10.70;99.90;;;;;;4969235;28;20512;-62
2023/05/07 08:04:30;;;;;;;7.37;6.67;;;10.70;99.90;;;;;;4973162;28;20475;-63
2023/05/07 08:06:58;;;;;;;7.80;7.10;;;10.70;99.90;;;;;;4972378;28;20489;-63
2023/05/07 08:09:26;;;;;;;7.83;7.13;;;10.80;99.90;;;;;;4974816;28;20877;-62
2023/05/07 08:11:54;;;;;;;7.50;6.80;;;10.80;99.90;;;;;;4974972;28;20476;-62
2023/05/07 08:14:22;;;;;;;8.83;7.93;;;10.90;99.90;;;;;;4970384;28;20508;-62
2023/05/07 08:16:52;;;;;;;7.67;6.97;;;10.90;99.90;;;;;;4971925;28;20610;-62
2023/05/07 08:19:21;;;;;;;8.10;7.40;;;10.90;99.90;;;;;;4972402;28;20472;-62
2023/05/07 08:21:50;;;;;;;7.97;7.27;;;10.90;99.90;;;;;;4969789;28;20465;-62
2023/05/07 08:24:18;;;;;;;8.40;7.60;;;10.90;99.90;;;;;;4972417;28;20500;-62
2023/05/07 08:26:46;;;;;;;7.67;6.97;;;10.90;99.90;;;;;;4969208;28;20524;-62
2023/05/07 08:29:15;;;;;;;7.60;7.00;;;10.90;99.90;;;;;;4968975;28;20476;-62
2023/05/07 08:31:42;;;;;;;7.90;7.30;;;11.00;99.90;;;;;;4971180;28;20484;-62
2023/05/07 08:34:18;;;;;;;8.00;7.40;;;11.00;99.90;;;;;;4969386;28;20484;-62
2023/05/07 08:36:48;;;;;;;8.07;7.40;;;11.00;99.90;;;;;;4973566;28;21336;-62
2023/05/07 08:39:16;;;;;;;8.10;7.40;;;11.10;99.90;;;;;;4973384;28;20476;-61
2023/05/07 08:41:46;;;;;;;8.60;7.90;;;11.10;99.90;;;;;;4975017;28;20470;-62
2023/05/07 08:44:15;;;;;;;8.30;7.60;;;11.10;99.90;;;;;;4969444;28;20485;-62
2023/05/07 08:46:47;;;;;;;7.83;7.17;;;11.10;99.90;;;;;;4973108;28;20505;-62
2023/05/07 08:49:17;;;;;;;8.37;7.57;;;11.20;99.90;;;;;;4973436;28;21004;-62
2023/05/07 08:51:46;;;;;;;7.53;6.93;;;11.20;99.90;;;;;;4967983;28;20478;-62
2023/05/07 08:54:17;;;;;;;8.60;7.83;;;11.20;99.90;;;;;;4971623;28;21161;-62
2023/05/07 08:56:45;;;;;;;8.50;7.63;;;11.20;99.90;;;;;;4972171;28;20900;-62
2023/05/07 08:59:14;;;;;;;7.87;7.20;;;11.20;99.90;;;;;;4971449;28;20485;-62
2023/05/07 09:01:43;;;;;;;8.37;7.57;;;11.30;99.90;;;;;;4980160;28;20469;-61
2023/05/07 09:04:12;;;;;;;7.83;7.23;;;11.20;99.90;;;;;;4987685;28;20481;-62
2023/05/07 09:06:41;;;;;;;8.63;7.83;;;11.30;99.90;;;;;;4968597;28;20493;-61
2023/05/07 09:09:10;;;;;;;7.80;7.17;;;11.30;99.90;;;;;;4972902;28;20486;-62
2023/05/07 09:11:38;;;;;;;7.43;6.83;;;11.30;99.90;;;;;;4979065;28;20465;-62
2023/05/07 09:14:06;;;;;;;8.00;7.30;;;11.40;99.90;;;;;;4984802;28;20473;-62
2023/05/07 09:16:36;;;;;;;8.20;7.50;;;11.40;99.90;;;;;;4975272;28;20493;-62
2023/05/07 09:19:04;;;;;;;7.90;7.30;;;11.40;99.90;;;;;;4975302;28;21004;-62
2023/05/07 09:21:32;;;;;;;8.47;7.77;;;11.40;99.90;;;;;;4977722;28;20492;-62
2023/05/07 09:24:01;;;;;;;7.77;7.07;;;11.30;99.90;;;;;;4974424;28;21750;-62
2023/05/07 09:26:31;;;;;;;6.90;6.40;;;11.40;99.90;;;;;;4980953;28;20489;-64
2023/05/07 09:28:59;;;;;;;7.10;6.50;;;11.40;99.90;;;;;;4986375;28;20469;-63
2023/05/07 09:31:27;;;;;;;7.00;6.40;;;11.40;99.90;;;;;;4981679;28;20477;-63
2023/05/07 09:33:56;;;;;;;7.27;6.60;;;11.40;99.90;;;;;;4986241;28;21083;-63
2023/05/07 09:36:24;;;;;;;7.47;6.87;;;11.50;99.90;;;;;;4977192;28;20823;-63
2023/05/07 09:38:52;;;;;;;7.70;7.00;;;11.50;99.90;;;;;;4978275;28;20497;-62
2023/05/07 09:41:21;;;;;;;7.97;7.37;;;11.60;99.90;;;;;;4978361;28;20473;-62
2023/05/07 09:43:55;;;;;;;7.17;6.57;;;11.60;99.90;;;;;;4978143;28;20481;-62
2023/05/07 09:46:28;;;;;;;6.77;6.27;;;11.60;99.90;;;;;;4977911;28;20498;-62
2023/05/07 09:48:59;;;;;;;6.63;6.13;;;11.70;99.90;;;;;;4978057;28;20483;-62
2023/05/07 09:51:31;;;;;;;6.30;5.80;;;11.70;99.90;;;;;;4969789;28;20504;-62
2023/05/07 09:54:00;;;;;;;6.97;6.37;;;11.80;99.90;;;;;;4974987;28;20898;-62
2023/05/07 09:56:31;;;;;;;7.03;6.43;;;11.80;99.90;;;;;;4978309;28;20489;-62
2023/05/07 09:59:01;;;;;;;7.17;6.57;;;11.90;99.90;;;;;;4974965;28;20997;-62
2023/05/07 10:01:31;;;;;;;6.40;5.90;;;11.90;99.90;;;;;;4980322;28;20470;-62
2023/05/07 10:04:00;;;;;;;6.30;5.80;;;12.00;99.90;;;;;;4979758;28;20496;-62
2023/05/07 10:06:30;;;;;;;6.70;6.20;;;12.00;99.90;;;;;;4968966;28;21105;-62
2023/05/07 10:08:59;;;;;;;6.87;6.27;;;12.00;99.90;;;;;;4981177;28;20914;-62
2023/05/07 10:11:27;;;;;;;6.73;6.13;;;12.00;99.90;;;;;;4973582;28;20477;-62
2023/05/07 10:13:57;;;;;;;6.97;6.37;;;12.10;99.90;;;;;;4975486;28;20473;-62
2023/05/07 10:16:27;;;;;;;6.40;5.90;;;12.10;99.90;;;;;;4975564;28;20493;-62
2023/05/07 10:18:55;;;;;;;7.03;6.50;;;12.20;99.90;;;;;;4972486;28;20473;-62
2023/05/07 10:21:24;;;;;;;7.20;6.70;;;12.20;99.90;;;;;;4972895;28;20483;-62
2023/05/07 10:23:59;;;;;;;7.77;7.07;;;12.20;99.90;;;;;;4973428;28;20493;-62
2023/05/07 10:26:29;;;;;;;7.50;6.90;;;12.20;99.90;;;;;;4977283;28;20497;-63
2023/05/07 10:29:04;;;;;;;6.60;6.10;;;12.20;99.90;;;;;;4980762;28;20477;-62
2023/05/07 10:31:56;;;;;;;7.10;6.50;;;12.10;99.90;;;;;;4974060;28;20483;-62
2023/05/07 10:34:28;;;;;;;7.67;6.97;;;12.20;99.90;;;;;;4966435;28;20473;-62
2023/05/07 10:36:57;;;;;;;9.23;8.43;;;12.10;99.90;;;;;;4971821;28;20612;-64
2023/05/07 10:39:25;;;;;;;7.43;6.83;;;12.20;99.90;;;;;;4969248;28;20469;-64
2023/05/07 10:41:54;;;;;;;6.70;6.20;;;12.20;99.90;;;;;;4973370;28;20477;-65
2023/05/07 10:44:30;;;;;;;7.20;6.70;;;12.20;99.90;;;;;;4962753;28;20498;-65
2023/05/07 10:47:09;;;;;;;7.03;6.50;;;12.20;99.90;;;;;;4976459;28;20646;-64
2023/05/07 10:49:58;;;;;;;7.07;6.47;;;12.20;99.90;;;;;;4979530;28;20619;-65
2023/05/07 10:52:26;;;;;;;6.60;6.13;;;12.20;99.90;;;;;;4977088;28;20477;-66
2023/05/07 10:55:24;;;;;;;7.37;6.77;;;12.20;99.90;;;;;;4975763;28;20477;-64
2023/05/07 10:57:52;;;;;;;6.43;5.93;;;12.20;99.90;;;;;;4973644;28;20584;-64
2023/05/07 11:00:45;;;;;;;6.23;5.80;;;12.30;99.90;;;;;;4971522;28;20477;-65
2023/05/07 11:03:14;;;;;;;6.57;6.00;;;12.30;99.90;;;;;;4968541;28;20481;-64
2023/05/07 11:05:43;;;;;;;6.17;5.70;;;12.40;99.90;;;;;;4966144;28;20500;-64
2023/05/07 11:08:11;;;;;;;6.50;6.00;;;12.50;99.90;;;;;;4969674;28;20476;-63
2023/05/07 11:10:53;;;;;;;6.10;5.60;;;12.60;99.90;;;;;;4973766;28;20501;-64
2023/05/07 11:13:43;;;;;;;6.10;5.50;;;12.60;99.90;;;;;;4972826;28;20703;-64
2023/05/07 11:16:20;;;;;;;5.83;5.43;;;12.80;99.90;;;;;;4973598;28;20490;-64
2023/05/07 11:18:49;;;;;;;6.70;6.10;;;12.80;99.90;;;;;;4974675;28;20476;-64
2023/05/07 11:21:33;;;;;;;5.60;5.17;;;12.90;99.90;;;;;;4965335;28;20481;-64
2023/05/07 11:24:02;;;;;;;5.80;5.40;;;13.00;99.90;;;;;;4966167;28;20483;-65
2023/05/07 11:26:31;;;;;;;5.80;5.40;;;13.10;99.90;;;;;;4954451;28;20497;-64
2023/05/07 11:29:01;;;;;;;6.00;5.50;;;13.20;99.90;;;;;;4958950;28;20508;-64
2023/05/07 11:31:31;;;;;;;5.33;4.93;;;13.20;99.90;;;;;;4956417;28;20611;-64
2023/05/07 11:34:00;;;;;;;6.67;5.40;;;13.30;99.90;;;;;;4959134;28;21262;-64
2023/05/07 11:36:33;;;;;;;6.07;5.57;;;13.40;99.90;;;;;;4965417;28;21161;-64
2023/05/07 11:39:01;;;;;;;5.43;4.93;;;13.60;99.90;;;;;;4969078;28;20464;-65
2023/05/07 11:41:37;;;;;;;4.93;4.63;;;13.70;99.90;;;;;;4970320;28;20481;-62
2023/05/07 11:44:05;;;;;;;5.17;4.77;;;13.80;99.90;;;;;;4968944;28;21033;-65
2023/05/07 11:46:34;;;;;;;5.27;4.87;;;13.90;99.90;;;;;;4964028;28;20620;-64
2023/05/07 11:49:02;;;;;;;5.10;4.77;;;14.00;99.90;;;;;;4964500;28;20481;-63
2023/05/07 11:51:31;;;;;;;5.23;4.83;;;14.10;99.90;;;;;;4972784;28;20500;-63
2023/05/07 11:53:59;;;;;;;5.27;4.97;;;14.10;99.90;;;;;;4971097;28;20504;-65
2023/05/07 11:56:27;;;;;;;5.00;4.60;;;14.20;99.90;;;;;;4971855;28;20504;-63
2023/05/07 11:58:55;;;;;;;5.00;4.70;;;14.20;99.90;;;;;;4970810;28;20472;-65
2023/05/07 12:01:23;;;;;;;4.93;4.63;;;14.20;99.90;;;;;;4968708;28;20542;-64
2023/05/07 12:03:52;;;;;;;4.70;4.30;;;14.30;99.90;;;;;;4969038;28;20476;-64
2023/05/07 12:06:20;;;;;;;4.60;4.30;;;14.30;99.90;;;;;;4971005;28;20496;-64
2023/05/07 12:08:48;;;;;;;4.33;4.03;;;14.30;99.90;;;;;;4965739;28;20500;-65
2023/05/07 12:11:22;;;;;;;4.77;4.47;;;14.40;99.90;;;;;;4964215;28;20481;-65
2023/05/07 12:13:51;;;;;;;4.67;4.33;;;14.40;99.90;;;;;;4970805;28;20477;-64
2023/05/07 12:16:20;;;;;;;4.77;4.37;;;14.50;99.90;;;;;;4977342;28;20492;-64
2023/05/07 12:18:48;;;;;;;4.73;4.07;;;14.60;99.90;;;;;;4970319;28;20643;-64
2023/05/07 12:21:18;;;;;;;4.90;4.50;;;14.70;99.90;;;;;;4970097;28;20474;-64
2023/05/07 12:23:46;;;;;;;4.07;3.77;;;14.70;99.90;;;;;;4975787;28;20473;-63
2023/05/07 12:26:14;;;;;;;4.03;3.80;;;14.70;99.90;;;;;;4979496;28;20489;-63
2023/05/07 12:28:42;;;;;;;3.83;3.53;;;14.70;99.90;;;;;;4979840;28;20473;-63
2023/05/07 12:31:10;;;;;;;4.57;4.17;;;14.70;99.90;;;;;;4966093;28;20614;-60
2023/05/07 12:33:39;;;;;;;4.60;4.20;;;14.70;99.90;;;;;;4975325;28;20481;-65
2023/05/07 12:36:08;;;;;;;4.13;3.80;;;14.70;99.90;;;;;;4972997;28;21065;-64
2023/05/07 12:38:39;;;;;;;3.67;3.27;;;14.80;99.90;;;;;;4967074;28;20503;-63
2023/05/07 12:41:09;;;;;;;3.83;3.40;;;14.90;99.90;;;;;;4975244;28;20476;-62
2023/05/07 12:43:38;;;;;;;3.87;3.57;;;15.00;99.90;;;;;;4974526;28;20476;-61
2023/05/07 12:46:07;;;;;;;3.43;3.13;;;15.10;99.90;;;;;;4968653;28;20493;-64
2023/05/07 12:48:38;;;;;;;4.17;3.87;;;15.20;99.90;;;;;;4967481;28;21156;-64
2023/05/07 12:51:07;;;;;;;4.80;4.33;;;15.40;99.90;;;;;;4977354;28;20470;-63
2023/05/07 12:53:42;;;;;;;4.10;3.83;;;15.50;99.90;;;;;;4977558;28;20482;-63
2023/05/07 12:56:10;;;;;;;3.97;3.77;;;15.50;99.90;;;;;;4967733;28;20574;-62